Portada
METAR-TAF:

METAR-TAF

Aeropuertos :

Orange, Francia

latitud: 44-08N, longitud: 004-50E, altitud: 60 m

Observación

El informe se hizo hace 31 minutos, a las 08:30 UTC
Viento 2 kt con dirección variable
Temperatura 8°C
Humedad 76%
Presión 1026 hPa
Visibilidad 10 km o más
Nubes dispersas a una altura de 4100 ft

METAR: LFMO 180830Z AUTO VRB02KT 9999 SCT041 08/04 Q1026 NOSIG

Hora: 10:01 (09:01 UTC)

Pronóstico

El informe se hizo hace 1 hora y 1 minutos, a las 08:00 UTC
Pronóstico válido del 18 a las 09 UTC al 19 a las 09 UTC
Viento 2 kt con dirección variable
Visibilidad 10 km o más
Nubes dispersas a una altura de 4000 ft
Temporalmente
del 18 a las 21 UTC al 19 a las 08 UTC
Visibilidad: 3000 m
neblina
Probabilidad 30% :
Temporalmente
del 19 a las 05 UTC al 19 a las 08 UTC
Visibilidad: 0500 m
niebla

TAF: LFMO 180800Z 1809/1909 VRB02KT 9999 SCT040 TEMPO 1821/1908 3000 BR PROB30 TEMPO 1905/1908 0500 FG

Observaciones y pronósticos meteorológicos de más de 4000 aeropuertos (mensajes METAR y TAF).

Los puntos amarillos y rojos representan las estaciones disponibles.

Ponga el ratón en el punto deseado para ver el nombre de la estación.

Haga clic para ver las observaciones y los pronósticos meteorológicos.

Para cambiar el mapa : haga clic en los botones verdes con una cruz de color negro para hacer un zoom, en el botón verde con un guión para alejar o en las flechas verdes para mapas adyacentes.


METAR-TAF: